sensor_id;sensor_type;location;lat;lon;timestamp;noise_LAeq;noise_LA_min;noise_LA_max;noise_LA01;noise_LA95
72466;Laerm;60471;52.150;4.508;2023-05-07T00:00:58;58.37;41.29;71.55;;
72466;Laerm;60471;52.150;4.508;2023-05-07T00:03:25;58.55;42.30;70.63;;
72466;Laerm;60471;52.150;4.508;2023-05-07T00:05:52;58.49;42.75;70.42;;
72466;Laerm;60471;52.150;4.508;2023-05-07T00:08:19;58.58;41.74;70.35;;
72466;Laerm;60471;52.150;4.508;2023-05-07T00:10:46;58.41;41.19;70.50;;
72466;Laerm;60471;52.150;4.508;2023-05-07T00:13:12;58.00;40.13;70.40;;
72466;Laerm;60471;52.150;4.508;2023-05-07T00:15:38;58.46;42.97;70.59;;
72466;Laerm;60471;52.150;4.508;2023-05-07T00:18:05;58.56;42.87;70.41;;
72466;Laerm;60471;52.150;4.508;2023-05-07T00:20:31;58.90;42.39;70.22;;
72466;Laerm;60471;52.150;4.508;2023-05-07T00:22:57;58.41;42.72;71.03;;
72466;Laerm;60471;52.150;4.508;2023-05-07T00:25:23;58.47;43.24;70.56;;
72466;Laerm;60471;52.150;4.508;2023-05-07T00:27:50;58.78;43.34;71.19;;
72466;Laerm;60471;52.150;4.508;2023-05-07T00:30:16;59.00;41.72;70.60;;
72466;Laerm;60471;52.150;4.508;2023-05-07T00:32:42;58.33;41.92;70.96;;
72466;Laerm;60471;52.150;4.508;2023-05-07T00:35:11;58.23;41.92;70.26;;
72466;Laerm;60471;52.150;4.508;2023-05-07T00:37:37;58.34;39.45;70.54;;
72466;Laerm;60471;52.150;4.508;2023-05-07T00:40:04;58.22;41.24;70.79;;
72466;Laerm;60471;52.150;4.508;2023-05-07T00:42:33;58.47;40.91;70.46;;
72466;Laerm;60471;52.150;4.508;2023-05-07T00:44:59;58.52;42.48;70.77;;
72466;Laerm;60471;52.150;4.508;2023-05-07T00:47:25;58.61;41.98;72.35;;
72466;Laerm;60471;52.150;4.508;2023-05-07T00:49:52;58.38;40.63;71.34;;
72466;Laerm;60471;52.150;4.508;2023-05-07T00:52:20;58.43;41.92;71.69;;
72466;Laerm;60471;52.150;4.508;2023-05-07T00:54:47;58.25;41.57;71.81;;
72466;Laerm;60471;52.150;4.508;2023-05-07T00:57:14;58.50;42.99;70.44;;
72466;Laerm;60471;52.150;4.508;2023-05-07T00:59:41;58.48;40.75;70.69;;
72466;Laerm;60471;52.150;4.508;2023-05-07T01:02:07;58.48;40.95;70.91;;
72466;Laerm;60471;52.150;4.508;2023-05-07T01:04:34;59.25;41.45;70.82;;
72466;Laerm;60471;52.150;4.508;2023-05-07T01:07:01;58.56;42.00;70.50;;
72466;Laerm;60471;52.150;4.508;2023-05-07T01:09:28;58.49;42.52;70.81;;
72466;Laerm;60471;52.150;4.508;2023-05-07T01:11:57;58.47;41.30;70.88;;
72466;Laerm;60471;52.150;4.508;2023-05-07T01:14:24;58.19;40.05;71.30;;
72466;Laerm;60471;52.150;4.508;2023-05-07T01:16:51;58.19;40.43;70.74;;
72466;Laerm;60471;52.150;4.508;2023-05-07T01:19:18;57.94;40.30;70.74;;
72466;Laerm;60471;52.150;4.508;2023-05-07T01:21:48;57.67;39.89;70.14;;
72466;Laerm;60471;52.150;4.508;2023-05-07T01:24:15;58.57;40.82;70.76;;
72466;Laerm;60471;52.150;4.508;2023-05-07T01:26:43;58.06;39.50;71.01;;
72466;Laerm;60471;52.150;4.508;2023-05-07T01:29:10;57.81;39.91;70.48;;
72466;Laerm;60471;52.150;4.508;2023-05-07T01:31:38;58.08;39.46;70.77;;
72466;Laerm;60471;52.150;4.508;2023-05-07T01:34:10;58.19;41.37;71.42;;
72466;Laerm;60471;52.150;4.508;2023-05-07T01:36:39;57.86;39.94;70.70;;
72466;Laerm;60471;52.150;4.508;2023-05-07T01:39:09;57.86;39.68;70.45;;
72466;Laerm;60471;52.150;4.508;2023-05-07T01:41:37;58.21;41.15;70.60;;
72466;Laerm;60471;52.150;4.508;2023-05-07T01:44:05;58.13;40.61;70.34;;
72466;Laerm;60471;52.150;4.508;2023-05-07T01:46:32;58.27;42.20;70.43;;
72466;Laerm;60471;52.150;4.508;2023-05-07T01:48:59;58.71;41.37;70.73;;
72466;Laerm;60471;52.150;4.508;2023-05-07T01:51:25;58.48;41.84;70.67;;
72466;Laerm;60471;52.150;4.508;2023-05-07T01:53:53;57.94;40.39;70.36;;
72466;Laerm;60471;52.150;4.508;2023-05-07T01:56:19;58.32;41.86;70.84;;
72466;Laerm;60471;52.150;4.508;2023-05-07T01:58:46;58.46;41.05;70.71;;
72466;Laerm;60471;52.150;4.508;2023-05-07T02:01:13;58.72;41.11;70.63;;
72466;Laerm;60471;52.150;4.508;2023-05-07T02:03:40;58.67;41.31;70.29;;
72466;Laerm;60471;52.150;4.508;2023-05-07T02:06:06;58.46;39.44;71.11;;
72466;Laerm;60471;52.150;4.508;2023-05-07T02:08:32;58.47;40.21;70.80;;
72466;Laerm;60471;52.150;4.508;2023-05-07T02:10:59;58.49;40.44;70.71;;
72466;Laerm;60471;52.150;4.508;2023-05-07T02:13:29;58.48;40.68;70.98;;
72466;Laerm;60471;52.150;4.508;2023-05-07T02:15:56;58.39;41.65;70.64;;
72466;Laerm;60471;52.150;4.508;2023-05-07T02:18:22;58.65;40.08;71.46;;
72466;Laerm;60471;52.150;4.508;2023-05-07T02:20:48;58.66;40.58;70.56;;
72466;Laerm;60471;52.150;4.508;2023-05-07T02:23:14;58.37;40.44;70.73;;
72466;Laerm;60471;52.150;4.508;2023-05-07T02:25:40;58.52;39.49;70.93;;
72466;Laerm;60471;52.150;4.508;2023-05-07T02:28:07;58.82;40.00;69.97;;
72466;Laerm;60471;52.150;4.508;2023-05-07T02:30:33;58.52;40.73;70.74;;
72466;Laerm;60471;52.150;4.508;2023-05-07T02:32:59;58.36;40.26;70.46;;
72466;Laerm;60471;52.150;4.508;2023-05-07T02:35:25;58.62;39.73;70.93;;
72466;Laerm;60471;52.150;4.508;2023-05-07T02:37:51;58.11;40.77;71.10;;
72466;Laerm;60471;52.150;4.508;2023-05-07T02:40:18;58.39;39.69;70.90;;
72466;Laerm;60471;52.150;4.508;2023-05-07T02:42:44;58.43;40.47;70.53;;
72466;Laerm;60471;52.150;4.508;2023-05-07T02:45:10;58.47;40.90;70.70;;
72466;Laerm;60471;52.150;4.508;2023-05-07T02:47:37;58.44;40.01;70.71;;
72466;Laerm;60471;52.150;4.508;2023-05-07T02:50:03;58.09;40.34;71.21;;
72466;Laerm;60471;52.150;4.508;2023-05-07T02:52:30;58.23;41.09;70.98;;
72466;Laerm;60471;52.150;4.508;2023-05-07T02:54:56;58.32;41.65;70.07;;
72466;Laerm;60471;52.150;4.508;2023-05-07T02:57:22;58.52;41.42;71.01;;
72466;Laerm;60471;52.150;4.508;2023-05-07T02:59:48;58.41;42.29;70.90;;
72466;Laerm;60471;52.150;4.508;2023-05-07T03:02:14;58.46;42.35;71.12;;
72466;Laerm;60471;52.150;4.508;2023-05-07T03:04:41;59.19;42.24;71.05;;
72466;Laerm;60471;52.150;4.508;2023-05-07T03:07:07;58.65;41.09;70.97;;
72466;Laerm;60471;52.150;4.508;2023-05-07T03:09:33;58.87;42.31;70.75;;
72466;Laerm;60471;52.150;4.508;2023-05-07T03:12:00;58.43;41.97;71.49;;
72466;Laerm;60471;52.150;4.508;2023-05-07T03:14:27;58.89;43.13;70.94;;
72466;Laerm;60471;52.150;4.508;2023-05-07T03:16:53;58.68;41.97;70.45;;
72466;Laerm;60471;52.150;4.508;2023-05-07T03:19:20;58.59;42.78;71.39;;
72466;Laerm;60471;52.150;4.508;2023-05-07T03:21:46;59.00;43.20;71.11;;
72466;Laerm;60471;52.150;4.508;2023-05-07T03:24:12;58.76;43.17;70.32;;
72466;Laerm;60471;52.150;4.508;2023-05-07T03:26:38;58.66;42.99;70.56;;
72466;Laerm;60471;52.150;4.508;2023-05-07T03:29:05;58.94;43.42;71.01;;
72466;Laerm;60471;52.150;4.508;2023-05-07T03:31:31;58.87;43.71;70.56;;
72466;Laerm;60471;52.150;4.508;2023-05-07T03:33:58;59.58;44.01;70.92;;
72466;Laerm;60471;52.150;4.508;2023-05-07T03:36:24;58.97;43.83;70.88;;
72466;Laerm;60471;52.150;4.508;2023-05-07T03:38:52;58.90;43.06;70.82;;
72466;Laerm;60471;52.150;4.508;2023-05-07T03:41:18;58.94;43.06;71.80;;
72466;Laerm;60471;52.150;4.508;2023-05-07T03:43:45;58.80;44.31;70.88;;
72466;Laerm;60471;52.150;4.508;2023-05-07T03:46:11;59.10;42.95;71.80;;
72466;Laerm;60471;52.150;4.508;2023-05-07T03:48:37;58.93;43.75;73.74;;
72466;Laerm;60471;52.150;4.508;2023-05-07T03:51:03;58.96;43.86;71.41;;
72466;Laerm;60471;52.150;4.508;2023-05-07T03:53:30;59.03;44.23;70.66;;
72466;Laerm;60471;52.150;4.508;2023-05-07T03:55:56;58.82;43.52;70.59;;
72466;Laerm;60471;52.150;4.508;2023-05-07T03:58:22;59.21;43.64;70.75;;
72466;Laerm;60471;52.150;4.508;2023-05-07T04:00:48;58.86;44.71;70.32;;
72466;Laerm;60471;52.150;4.508;2023-05-07T04:03:15;59.00;43.14;70.91;;
72466;Laerm;60471;52.150;4.508;2023-05-07T04:05:41;58.88;42.82;70.59;;
72466;Laerm;60471;52.150;4.508;2023-05-07T04:08:08;58.81;43.72;70.57;;
72466;Laerm;60471;52.150;4.508;2023-05-07T04:10:34;58.97;43.21;70.52;;
72466;Laerm;60471;52.150;4.508;2023-05-07T04:13:00;58.51;42.52;70.66;;
72466;Laerm;60471;52.150;4.508;2023-05-07T04:15:26;58.75;42.25;70.67;;
72466;Laerm;60471;52.150;4.508;2023-05-07T04:17:53;58.71;43.61;71.04;;
72466;Laerm;60471;52.150;4.508;2023-05-07T04:20:19;58.83;42.35;70.60;;
72466;Laerm;60471;52.150;4.508;2023-05-07T04:22:45;62.10;43.40;84.86;;
72466;Laerm;60471;52.150;4.508;2023-05-07T04:25:11;58.50;43.14;71.30;;
72466;Laerm;60471;52.150;4.508;2023-05-07T04:27:38;58.84;43.40;70.02;;
72466;Laerm;60471;52.150;4.508;2023-05-07T04:30:04;58.46;41.91;70.30;;
72466;Laerm;60471;52.150;4.508;2023-05-07T04:32:32;58.96;43.44;70.63;;
72466;Laerm;60471;52.150;4.508;2023-05-07T04:34:58;58.70;44.24;70.47;;
72466;Laerm;60471;52.150;4.508;2023-05-07T04:37:25;58.46;43.72;70.96;;
72466;Laerm;60471;52.150;4.508;2023-05-07T04:39:51;58.29;44.02;70.43;;
72466;Laerm;60471;52.150;4.508;2023-05-07T04:42:18;58.32;43.84;70.33;;
72466;Laerm;60471;52.150;4.508;2023-05-07T04:44:44;59.00;43.55;70.61;;
72466;Laerm;60471;52.150;4.508;2023-05-07T04:47:11;58.51;43.55;70.51;;
72466;Laerm;60471;52.150;4.508;2023-05-07T04:49:38;58.56;44.10;70.68;;
72466;Laerm;60471;52.150;4.508;2023-05-07T04:52:05;58.03;43.68;70.37;;
72466;Laerm;60471;52.150;4.508;2023-05-07T04:54:31;58.59;42.63;70.47;;
72466;Laerm;60471;52.150;4.508;2023-05-07T04:56:57;58.92;44.07;70.97;;
72466;Laerm;60471;52.150;4.508;2023-05-07T04:59:23;58.92;43.74;70.33;;
72466;Laerm;60471;52.150;4.508;2023-05-07T05:01:49;58.82;44.49;70.54;;
72466;Laerm;60471;52.150;4.508;2023-05-07T05:04:16;58.82;44.17;70.49;;
72466;Laerm;60471;52.150;4.508;2023-05-07T05:06:42;58.54;43.84;70.77;;
72466;Laerm;60471;52.150;4.508;2023-05-07T05:09:08;58.62;44.40;69.89;;
72466;Laerm;60471;52.150;4.508;2023-05-07T05:11:34;58.38;43.94;70.56;;
72466;Laerm;60471;52.150;4.508;2023-05-07T05:14:01;58.92;44.36;70.33;;
72466;Laerm;60471;52.150;4.508;2023-05-07T05:16:27;58.69;43.53;71.25;;
72466;Laerm;60471;52.150;4.508;2023-05-07T05:18:54;58.54;43.82;69.94;;
72466;Laerm;60471;52.150;4.508;2023-05-07T05:21:20;58.49;44.36;70.57;;
72466;Laerm;60471;52.150;4.508;2023-05-07T05:23:47;58.88;45.03;69.96;;
72466;Laerm;60471;52.150;4.508;2023-05-07T05:26:13;58.54;45.00;70.69;;
72466;Laerm;60471;52.150;4.508;2023-05-07T05:28:39;58.74;43.93;70.66;;
72466;Laerm;60471;52.150;4.508;2023-05-07T05:31:06;58.56;44.07;70.41;;
72466;Laerm;60471;52.150;4.508;2023-05-07T05:33:32;58.75;45.18;70.79;;
72466;Laerm;60471;52.150;4.508;2023-05-07T05:35:58;58.21;44.27;71.46;;
72466;Laerm;60471;52.150;4.508;2023-05-07T05:38:24;58.38;43.43;69.88;;
72466;Laerm;60471;52.150;4.508;2023-05-07T05:40:51;58.29;44.37;69.89;;
72466;Laerm;60471;52.150;4.508;2023-05-07T05:43:17;58.93;45.81;70.25;;
72466;Laerm;60471;52.150;4.508;2023-05-07T05:45:44;58.47;45.01;70.91;;
72466;Laerm;60471;52.150;4.508;2023-05-07T05:48:10;58.57;45.40;70.05;;
72466;Laerm;60471;52.150;4.508;2023-05-07T05:50:36;58.42;43.70;71.34;;
72466;Laerm;60471;52.150;4.508;2023-05-07T05:53:03;58.47;43.45;70.51;;
72466;Laerm;60471;52.150;4.508;2023-05-07T05:55:30;58.53;43.95;70.54;;
72466;Laerm;60471;52.150;4.508;2023-05-07T05:58:00;58.40;44.13;70.35;;
72466;Laerm;60471;52.150;4.508;2023-05-07T06:00:27;57.91;44.17;70.64;;
72466;Laerm;60471;52.150;4.508;2023-05-07T06:02:53;58.10;44.18;69.88;;
72466;Laerm;60471;52.150;4.508;2023-05-07T06:05:20;58.28;44.61;69.53;;
72466;Laerm;60471;52.150;4.508;2023-05-07T06:07:46;57.49;43.61;69.37;;
72466;Laerm;60471;52.150;4.508;2023-05-07T06:10:12;58.07;44.10;69.50;;
72466;Laerm;60471;52.150;4.508;2023-05-07T06:12:39;57.92;44.48;69.86;;
72466;Laerm;60471;52.150;4.508;2023-05-07T06:15:06;57.10;42.76;68.53;;
72466;Laerm;60471;52.150;4.508;2023-05-07T06:17:32;57.67;43.31;70.53;;
72466;Laerm;60471;52.150;4.508;2023-05-07T06:19:58;56.99;43.82;68.61;;
72466;Laerm;60471;52.150;4.508;2023-05-07T06:22:24;57.96;43.21;72.99;;
72466;Laerm;60471;52.150;4.508;2023-05-07T06:24:51;58.08;42.41;70.42;;
72466;Laerm;60471;52.150;4.508;2023-05-07T06:27:17;57.18;43.01;68.76;;
72466;Laerm;60471;52.150;4.508;2023-05-07T06:29:43;56.82;42.82;68.37;;
72466;Laerm;60471;52.150;4.508;2023-05-07T06:32:13;57.54;43.65;70.47;;
72466;Laerm;60471;52.150;4.508;2023-05-07T06:34:40;57.27;43.04;68.86;;
72466;Laerm;60471;52.150;4.508;2023-05-07T06:37:06;57.71;42.98;68.64;;
72466;Laerm;60471;52.150;4.508;2023-05-07T06:39:33;57.62;43.80;68.61;;
72466;Laerm;60471;52.150;4.508;2023-05-07T06:42:00;57.43;44.02;68.66;;
72466;Laerm;60471;52.150;4.508;2023-05-07T06:44:27;57.42;42.82;68.82;;
72466;Laerm;60471;52.150;4.508;2023-05-07T06:46:53;57.61;42.65;68.92;;
72466;Laerm;60471;52.150;4.508;2023-05-07T06:49:19;57.93;45.65;68.65;;
72466;Laerm;60471;52.150;4.508;2023-05-07T06:51:45;58.38;43.88;69.37;;
72466;Laerm;60471;52.150;4.508;2023-05-07T06:54:12;57.89;44.69;68.92;;
72466;Laerm;60471;52.150;4.508;2023-05-07T06:56:38;58.67;43.80;69.27;;
72466;Laerm;60471;52.150;4.508;2023-05-07T06:59:06;58.01;44.15;68.91;;
72466;Laerm;60471;52.150;4.508;2023-05-07T07:01:32;57.83;44.36;68.89;;
72466;Laerm;60471;52.150;4.508;2023-05-07T07:03:59;58.16;44.82;69.84;;
72466;Laerm;60471;52.150;4.508;2023-05-07T07:06:25;58.07;43.85;69.34;;
72466;Laerm;60471;52.150;4.508;2023-05-07T07:08:51;57.91;44.32;68.60;;
72466;Laerm;60471;52.150;4.508;2023-05-07T07:11:17;58.05;43.19;70.53;;
72466;Laerm;60471;52.150;4.508;2023-05-07T07:13:43;58.04;45.61;68.72;;
72466;Laerm;60471;52.150;4.508;2023-05-07T07:16:10;57.80;44.56;69.61;;
72466;Laerm;60471;52.150;4.508;2023-05-07T07:18:36;58.06;45.76;68.74;;
72466;Laerm;60471;52.150;4.508;2023-05-07T07:21:03;58.70;46.62;69.80;;
72466;Laerm;60471;52.150;4.508;2023-05-07T07:23:29;57.51;45.33;68.12;;
72466;Laerm;60471;52.150;4.508;2023-05-07T07:25:55;56.93;44.46;69.30;;
72466;Laerm;60471;52.150;4.508;2023-05-07T07:28:22;58.07;43.87;69.35;;
72466;Laerm;60471;52.150;4.508;2023-05-07T07:30:48;58.48;45.06;69.29;;
72466;Laerm;60471;52.150;4.508;2023-05-07T07:33:14;57.62;44.12;68.56;;
72466;Laerm;60471;52.150;4.508;2023-05-07T07:35:40;57.76;45.05;69.13;;
72466;Laerm;60471;52.150;4.508;2023-05-07T07:38:07;58.40;43.50;68.71;;
72466;Laerm;60471;52.150;4.508;2023-05-07T07:40:35;58.21;45.94;68.11;;
72466;Laerm;60471;52.150;4.508;2023-05-07T07:43:01;58.25;46.21;74.10;;
72466;Laerm;60471;52.150;4.508;2023-05-07T07:45:27;57.97;45.01;69.39;;
72466;Laerm;60471;52.150;4.508;2023-05-07T07:47:53;59.10;47.65;69.20;;
72466;Laerm;60471;52.150;4.508;2023-05-07T07:50:20;58.89;47.20;69.35;;
72466;Laerm;60471;52.150;4.508;2023-05-07T07:52:46;58.17;46.37;69.54;;
72466;Laerm;60471;52.150;4.508;2023-05-07T07:55:12;58.60;44.79;69.42;;
72466;Laerm;60471;52.150;4.508;2023-05-07T07:57:38;58.14;44.63;69.40;;
72466;Laerm;60471;52.150;4.508;2023-05-07T08:00:07;58.07;46.14;69.20;;
72466;Laerm;60471;52.150;4.508;2023-05-07T08:02:33;57.49;44.38;69.41;;
72466;Laerm;60471;52.150;4.508;2023-05-07T08:05:00;57.46;45.47;67.19;;
72466;Laerm;60471;52.150;4.508;2023-05-07T08:07:26;57.08;45.53;66.52;;
72466;Laerm;60471;52.150;4.508;2023-05-07T08:09:52;58.10;47.66;67.41;;
72466;Laerm;60471;52.150;4.508;2023-05-07T08:12:18;56.46;45.06;66.76;;
72466;Laerm;60471;52.150;4.508;2023-05-07T08:14:45;56.66;44.50;67.76;;
72466;Laerm;60471;52.150;4.508;2023-05-07T08:17:11;58.63;46.40;67.08;;
72466;Laerm;60471;52.150;4.508;2023-05-07T08:19:38;57.70;45.63;69.05;;
72466;Laerm;60471;52.150;4.508;2023-05-07T08:22:05;57.48;46.87;66.71;;
72466;Laerm;60471;52.150;4.508;2023-05-07T08:24:31;58.20;46.83;68.44;;
72466;Laerm;60471;52.150;4.508;2023-05-07T08:26:57;57.41;45.12;67.67;;
72466;Laerm;60471;52.150;4.508;2023-05-07T08:29:23;57.30;47.71;66.32;;
72466;Laerm;60471;52.150;4.508;2023-05-07T08:31:50;55.88;45.03;66.14;;
72466;Laerm;60471;52.150;4.508;2023-05-07T08:34:16;56.83;46.13;71.36;;
72466;Laerm;60471;52.150;4.508;2023-05-07T08:36:42;56.87;44.94;67.24;;
72466;Laerm;60471;52.150;4.508;2023-05-07T08:39:08;57.04;46.37;65.00;;
72466;Laerm;60471;52.150;4.508;2023-05-07T08:41:35;56.10;45.97;67.10;;
72466;Laerm;60471;52.150;4.508;2023-05-07T08:44:03;56.63;46.04;66.47;;
72466;Laerm;60471;52.150;4.508;2023-05-07T08:46:31;57.70;46.69;67.63;;
72466;Laerm;60471;52.150;4.508;2023-05-07T08:48:58;57.54;46.13;66.97;;
72466;Laerm;60471;52.150;4.508;2023-05-07T08:51:24;57.00;46.66;65.03;;
72466;Laerm;60471;52.150;4.508;2023-05-07T08:53:51;58.84;46.41;70.60;;
72466;Laerm;60471;52.150;4.508;2023-05-07T08:56:17;55.42;44.88;65.06;;
72466;Laerm;60471;52.150;4.508;2023-05-07T08:58:48;55.58;45.66;65.02;;
72466;Laerm;60471;52.150;4.508;2023-05-07T09:01:16;56.31;45.48;67.15;;
72466;Laerm;60471;52.150;4.508;2023-05-07T09:03:46;57.29;46.81;70.28;;
72466;Laerm;60471;52.150;4.508;2023-05-07T09:06:13;56.29;46.69;66.59;;
72466;Laerm;60471;52.150;4.508;2023-05-07T09:08:40;57.88;46.43;76.78;;
72466;Laerm;60471;52.150;4.508;2023-05-07T09:11:06;57.36;45.55;66.95;;
72466;Laerm;60471;52.150;4.508;2023-05-07T09:13:32;55.67;46.09;66.54;;
72466;Laerm;60471;52.150;4.508;2023-05-07T09:16:10;57.24;46.44;65.15;;
72466;Laerm;60471;52.150;4.508;2023-05-07T09:18:44;57.01;45.73;79.57;;
72466;Laerm;60471;52.150;4.508;2023-05-07T09:21:15;57.02;45.55;77.97;;
72466;Laerm;60471;52.150;4.508;2023-05-07T09:23:41;58.08;46.54;64.70;;
72466;Laerm;60471;52.150;4.508;2023-05-07T09:26:08;56.82;46.72;67.53;;
72466;Laerm;60471;52.150;4.508;2023-05-07T09:28:41;57.91;46.28;66.18;;
72466;Laerm;60471;52.150;4.508;2023-05-07T09:31:09;57.05;46.21;69.30;;
72466;Laerm;60471;52.150;4.508;2023-05-07T09:33:36;58.14;46.37;72.07;;
72466;Laerm;60471;52.150;4.508;2023-05-07T09:36:08;58.58;46.91;81.50;;
72466;Laerm;60471;52.150;4.508;2023-05-07T09:38:36;56.59;46.80;64.84;;
72466;Laerm;60471;52.150;4.508;2023-05-07T09:41:09;56.52;48.02;72.16;;
72466;Laerm;60471;52.150;4.508;2023-05-07T09:43:37;56.18;46.87;64.55;;
72466;Laerm;60471;52.150;4.508;2023-05-07T09:46:30;56.89;46.62;65.42;;
72466;Laerm;60471;52.150;4.508;2023-05-07T09:48:58;56.48;45.32;64.74;;
72466;Laerm;60471;52.150;4.508;2023-05-07T09:51:30;56.00;45.74;64.19;;
72466;Laerm;60471;52.150;4.508;2023-05-07T09:53:57;55.28;46.29;63.76;;
72466;Laerm;60471;52.150;4.508;2023-05-07T09:56:29;56.64;45.59;75.20;;
72466;Laerm;60471;52.150;4.508;2023-05-07T09:58:59;56.68;45.56;65.71;;
72466;Laerm;60471;52.150;4.508;2023-05-07T10:01:27;56.59;46.74;76.75;;
72466;Laerm;60471;52.150;4.508;2023-05-07T10:03:53;56.57;47.41;65.81;;
72466;Laerm;60471;52.150;4.508;2023-05-07T10:06:21;56.16;48.04;64.62;;
72466;Laerm;60471;52.150;4.508;2023-05-07T10:08:48;55.47;44.43;64.39;;
72466;Laerm;60471;52.150;4.508;2023-05-07T10:11:16;55.86;44.46;64.99;;
72466;Laerm;60471;52.150;4.508;2023-05-07T10:13:43;57.77;47.43;66.49;;
72466;Laerm;60471;52.150;4.508;2023-05-07T10:16:09;56.71;47.88;64.03;;
72466;Laerm;60471;52.150;4.508;2023-05-07T10:18:37;56.40;45.55;65.92;;
72466;Laerm;60471;52.150;4.508;2023-05-07T10:21:11;56.85;44.00;65.66;;
72466;Laerm;60471;52.150;4.508;2023-05-07T10:23:46;59.23;48.51;69.01;;
72466;Laerm;60471;52.150;4.508;2023-05-07T10:26:15;57.06;46.18;64.81;;
72466;Laerm;60471;52.150;4.508;2023-05-07T10:28:49;56.68;46.32;64.01;;
72466;Laerm;60471;52.150;4.508;2023-05-07T10:31:42;56.40;47.53;63.59;;
72466;Laerm;60471;52.150;4.508;2023-05-07T10:34:17;57.29;47.57;65.89;;
72466;Laerm;60471;52.150;4.508;2023-05-07T10:36:45;57.54;44.96;70.31;;
72466;Laerm;60471;52.150;4.508;2023-05-07T10:39:12;56.99;46.97;67.03;;
72466;Laerm;60471;52.150;4.508;2023-05-07T10:41:39;57.44;46.10;68.26;;
72466;Laerm;60471;52.150;4.508;2023-05-07T10:44:05;57.92;48.28;64.45;;
72466;Laerm;60471;52.150;4.508;2023-05-07T10:46:32;56.68;48.24;67.80;;
72466;Laerm;60471;52.150;4.508;2023-05-07T10:51:33;57.57;48.35;65.06;;
72466;Laerm;60471;52.150;4.508;2023-05-07T10:56:39;57.68;48.71;64.44;;
72466;Laerm;60471;52.150;4.508;2023-05-07T11:01:54;57.00;46.19;77.12;;
72466;Laerm;60471;52.150;4.508;2023-05-07T11:04:20;55.66;45.35;69.52;;
72466;Laerm;60471;52.150;4.508;2023-05-07T11:15:33;57.92;48.94;64.77;;
72466;Laerm;60471;52.150;4.508;2023-05-07T11:18:00;57.97;49.37;65.48;;
72466;Laerm;60471;52.150;4.508;2023-05-07T11:26:08;56.53;45.93;77.31;;
72466;Laerm;60471;52.150;4.508;2023-05-07T11:28:43;58.02;45.30;80.72;;
72466;Laerm;60471;52.150;4.508;2023-05-07T11:31:10;59.48;48.29;75.21;;
72466;Laerm;60471;52.150;4.508;2023-05-07T11:33:38;57.81;46.70;68.21;;
72466;Laerm;60471;52.150;4.508;2023-05-07T11:36:05;55.52;46.56;67.81;;
72466;Laerm;60471;52.150;4.508;2023-05-07T11:38:35;54.89;44.67;64.43;;
72466;Laerm;60471;52.150;4.508;2023-05-07T11:41:04;56.46;48.09;66.53;;
72466;Laerm;60471;52.150;4.508;2023-05-07T11:43:32;57.62;47.39;64.46;;
72466;Laerm;60471;52.150;4.508;2023-05-07T11:46:10;56.10;46.13;65.08;;
72466;Laerm;60471;52.150;4.508;2023-05-07T11:48:37;57.85;46.53;68.36;;
72466;Laerm;60471;52.150;4.508;2023-05-07T11:51:06;58.90;48.55;70.41;;
72466;Laerm;60471;52.150;4.508;2023-05-07T11:53:40;59.37;49.31;72.42;;
72466;Laerm;60471;52.150;4.508;2023-05-07T11:56:11;57.36;48.38;63.84;;
72466;Laerm;60471;52.150;4.508;2023-05-07T11:58:38;57.12;48.96;64.71;;
72466;Laerm;60471;52.150;4.508;2023-05-07T12:01:07;59.10;48.22;68.97;;
72466;Laerm;60471;52.150;4.508;2023-05-07T12:03:36;57.40;46.30;70.32;;
72466;Laerm;60471;52.150;4.508;2023-05-07T12:06:06;56.62;45.31;66.15;;
72466;Laerm;60471;52.150;4.508;2023-05-07T12:08:32;55.90;48.69;63.63;;
72466;Laerm;60471;52.150;4.508;2023-05-07T12:10:58;57.24;48.21;64.28;;
72466;Laerm;60471;52.150;4.508;2023-05-07T12:13:25;57.07;47.24;66.41;;
72466;Laerm;60471;52.150;4.508;2023-05-07T12:15:56;58.11;47.38;65.37;;
72466;Laerm;60471;52.150;4.508;2023-05-07T12:18:23;56.12;44.51;65.23;;
72466;Laerm;60471;52.150;4.508;2023-05-07T12:20:50;56.13;44.96;65.30;;
72466;Laerm;60471;52.150;4.508;2023-05-07T12:23:17;56.94;46.47;64.82;;
72466;Laerm;60471;52.150;4.508;2023-05-07T12:25:43;56.74;46.83;66.00;;
72466;Laerm;60471;52.150;4.508;2023-05-07T12:28:14;57.08;44.66;66.11;;
72466;Laerm;60471;52.150;4.508;2023-05-07T12:30:45;56.94;45.37;65.53;;
72466;Laerm;60471;52.150;4.508;2023-05-07T12:33:24;56.75;43.54;80.71;;
72466;Laerm;60471;52.150;4.508;2023-05-07T12:35:50;58.37;43.62;82.80;;
72466;Laerm;60471;52.150;4.508;2023-05-07T12:38:18;57.50;46.53;68.64;;
72466;Laerm;60471;52.150;4.508;2023-05-07T12:40:48;56.90;46.10;64.16;;
72466;Laerm;60471;52.150;4.508;2023-05-07T12:43:25;56.96;45.27;70.26;;
72466;Laerm;60471;52.150;4.508;2023-05-07T12:45:57;58.68;45.99;72.86;;
72466;Laerm;60471;52.150;4.508;2023-05-07T12:48:25;57.47;44.68;67.12;;
72466;Laerm;60471;52.150;4.508;2023-05-07T12:50:54;58.28;47.97;65.94;;
72466;Laerm;60471;52.150;4.508;2023-05-07T12:53:23;57.99;44.53;65.22;;
72466;Laerm;60471;52.150;4.508;2023-05-07T12:55:54;57.26;44.99;66.44;;
72466;Laerm;60471;52.150;4.508;2023-05-07T12:58:26;56.21;44.18;65.04;;
72466;Laerm;60471;52.150;4.508;2023-05-07T13:00:54;57.02;44.63;67.75;;
72466;Laerm;60471;52.150;4.508;2023-05-07T13:03:27;55.82;44.26;64.15;;
72466;Laerm;60471;52.150;4.508;2023-05-07T13:05:57;56.09;43.38;70.14;;
72466;Laerm;60471;52.150;4.508;2023-05-07T13:08:36;55.54;43.37;65.44;;
72466;Laerm;60471;52.150;4.508;2023-05-07T13:11:04;57.87;44.68;65.57;;
72466;Laerm;60471;52.150;4.508;2023-05-07T13:13:31;57.55;44.53;64.74;;
72466;Laerm;60471;52.150;4.508;2023-05-07T13:15:58;57.92;48.22;67.77;;
72466;Laerm;60471;52.150;4.508;2023-05-07T13:18:25;59.19;49.95;65.40;;
72466;Laerm;60471;52.150;4.508;2023-05-07T13:20:53;60.37;53.81;66.26;;
72466;Laerm;60471;52.150;4.508;2023-05-07T13:23:20;61.27;55.98;67.32;;
72466;Laerm;60471;52.150;4.508;2023-05-07T13:25:46;58.76;49.25;67.13;;
72466;Laerm;60471;52.150;4.508;2023-05-07T13:28:12;58.25;48.98;65.76;;
72466;Laerm;60471;52.150;4.508;2023-05-07T13:30:39;57.92;48.33;65.69;;
72466;Laerm;60471;52.150;4.508;2023-05-07T13:33:06;58.58;45.51;67.04;;
72466;Laerm;60471;52.150;4.508;2023-05-07T13:35:33;59.43;50.79;65.89;;
72466;Laerm;60471;52.150;4.508;2023-05-07T13:37:59;58.43;46.32;66.70;;
72466;Laerm;60471;52.150;4.508;2023-05-07T13:40:26;56.64;44.45;65.06;;
72466;Laerm;60471;52.150;4.508;2023-05-07T13:42:53;57.55;45.12;67.52;;
72466;Laerm;60471;52.150;4.508;2023-05-07T13:45:20;57.49;43.70;68.14;;
72466;Laerm;60471;52.150;4.508;2023-05-07T13:47:46;56.27;44.58;63.61;;
72466;Laerm;60471;52.150;4.508;2023-05-07T13:50:13;57.16;41.74;64.88;;
72466;Laerm;60471;52.150;4.508;2023-05-07T13:52:44;57.72;42.00;66.66;;
72466;Laerm;60471;52.150;4.508;2023-05-07T13:55:24;56.61;46.39;63.86;;
72466;Laerm;60471;52.150;4.508;2023-05-07T13:58:02;54.93;41.89;65.17;;
72466;Laerm;60471;52.150;4.508;2023-05-07T14:00:29;57.24;44.87;66.14;;
72466;Laerm;60471;52.150;4.508;2023-05-07T14:02:56;54.95;42.57;64.17;;
72466;Laerm;60471;52.150;4.508;2023-05-07T14:05:22;55.90;44.44;70.17;;
72466;Laerm;60471;52.150;4.508;2023-05-07T14:07:55;56.86;44.64;65.83;;